createdAt,value
2022-10-06T00:03:56.818Z,21.60
2022-10-06T00:09:00.086Z,21.60
2022-10-06T00:14:03.363Z,21.50
2022-10-06T00:19:08.403Z,21.50
2022-10-06T00:24:12.092Z,21.40
2022-10-06T00:29:15.416Z,21.30
2022-10-06T00:34:20.415Z,21.30
2022-10-06T00:39:23.721Z,21.30
2022-10-06T00:44:27.317Z,21.20
2022-10-06T00:49:36.816Z,21.20
2022-10-06T00:54:40.256Z,21.20
2022-10-06T00:59:43.615Z,21.10
2022-10-06T01:04:50.571Z,21.10
2022-10-06T01:09:54.576Z,21.00
2022-10-06T01:14:58.198Z,21.00
2022-10-06T01:20:10.420Z,21.00
2022-10-06T01:25:16.979Z,21.00
2022-10-06T01:30:25.010Z,20.90
2022-10-06T01:35:28.288Z,20.90
2022-10-06T01:40:33.126Z,20.80
2022-10-06T01:45:38.089Z,20.70
2022-10-06T01:50:42.297Z,20.70
2022-10-06T01:55:47.603Z,20.70
2022-10-06T02:00:55.022Z,20.70
2022-10-06T02:05:58.539Z,20.60
2022-10-06T02:11:09.161Z,20.60
2022-10-06T02:16:17.275Z,20.50
2022-10-06T02:21:22.772Z,20.50
2022-10-06T02:26:27.432Z,20.40
2022-10-06T02:31:31.544Z,20.40
2022-10-06T02:36:35.489Z,20.30
2022-10-06T02:41:40.765Z,20.30
2022-10-06T02:46:44.239Z,20.30
2022-10-06T02:51:47.757Z,20.20
2022-10-06T02:56:52.364Z,20.20
2022-10-06T03:01:55.942Z,20.20
2022-10-06T03:07:00.000Z,20.10
2022-10-06T03:12:09.548Z,20.10
2022-10-06T03:17:15.996Z,20.00
2022-10-06T03:22:27.165Z,20.00
2022-10-06T03:27:34.230Z,20.00
2022-10-06T03:32:40.064Z,20.00
2022-10-06T03:37:45.784Z,19.90
2022-10-06T03:42:51.432Z,19.90
2022-10-06T03:47:56.680Z,19.90
2022-10-06T03:53:00.081Z,19.90
2022-10-06T03:58:05.046Z,19.80
2022-10-06T04:03:08.389Z,19.80
2022-10-06T04:08:11.968Z,19.70
2022-10-06T04:13:18.336Z,19.70
2022-10-06T04:18:22.124Z,19.70
2022-10-06T04:23:25.567Z,19.70
2022-10-06T04:28:30.834Z,19.60
2022-10-06T04:33:34.596Z,19.60
2022-10-06T04:38:39.027Z,19.50
2022-10-06T04:43:43.929Z,19.50
2022-10-06T04:48:47.604Z,19.50
2022-10-06T04:53:51.281Z,19.50
2022-10-06T04:58:58.412Z,19.50
2022-10-06T05:04:03.477Z,19.40
2022-10-06T05:09:10.867Z,19.40
2022-10-06T05:14:18.369Z,19.40
2022-10-06T05:19:24.513Z,19.40
2022-10-06T05:24:28.868Z,19.40
2022-10-06T05:29:35.143Z,19.40
2022-10-06T05:34:40.396Z,19.40
2022-10-06T05:39:43.702Z,19.40
2022-10-06T05:44:48.500Z,19.40
2022-10-06T05:49:52.656Z,19.40
2022-10-06T05:54:55.961Z,19.40
2022-10-06T06:00:00.682Z,19.40
2022-10-06T06:05:05.334Z,19.40
2022-10-06T06:10:10.215Z,19.40
2022-10-06T06:15:32.508Z,19.40
2022-10-06T06:20:38.329Z,19.50
2022-10-06T06:25:44.551Z,19.50
2022-10-06T06:30:49.712Z,19.50
2022-10-06T06:35:53.183Z,19.50
2022-10-06T06:40:57.003Z,19.60
2022-10-06T06:46:05.611Z,19.70
2022-10-06T06:51:24.321Z,19.70
2022-10-06T06:56:27.968Z,19.70
2022-10-06T07:01:32.904Z,19.80
2022-10-06T07:06:40.091Z,19.80
2022-10-06T07:11:44.708Z,19.90
2022-10-06T07:17:11.840Z,20.00
2022-10-06T07:22:39.557Z,20.00
2022-10-06T07:27:52.117Z,20.10
2022-10-06T07:33:01.961Z,20.20
2022-10-06T07:38:08.731Z,20.30
2022-10-06T07:43:19.759Z,20.40
2022-10-06T07:48:26.800Z,20.50
2022-10-06T07:53:35.812Z,20.70
2022-10-06T07:58:45.485Z,20.90
2022-10-06T08:03:50.747Z,21.10
2022-10-06T08:08:55.215Z,21.30
2022-10-06T08:13:58.894Z,21.50
2022-10-06T08:19:03.575Z,21.70
2022-10-06T08:24:07.265Z,22.00
2022-10-06T08:29:11.583Z,22.20
2022-10-06T08:34:16.220Z,22.50
2022-10-06T08:39:19.531Z,22.70
2022-10-06T08:44:31.672Z,23.00
2022-10-06T08:49:39.746Z,23.20
2022-10-06T08:54:52.121Z,23.50
2022-10-06T08:59:55.689Z,23.80
2022-10-06T09:05:03.810Z,24.10
2022-10-06T09:10:27.391Z,24.40
2022-10-06T09:15:36.300Z,24.80
2022-10-06T09:20:45.049Z,25.00
2022-10-06T09:25:48.476Z,25.40
2022-10-06T09:30:55.446Z,25.80
2022-10-06T09:36:09.934Z,26.10
2022-10-06T09:41:14.488Z,26.40
2022-10-06T09:46:22.872Z,26.70
2022-10-06T09:51:29.141Z,27.10
2022-10-06T09:56:36.322Z,27.50
2022-10-06T10:01:39.753Z,27.80
2022-10-06T10:06:44.479Z,28.10
2022-10-06T10:12:05.204Z,28.50
2022-10-06T10:17:11.536Z,28.80
2022-10-06T10:22:23.738Z,29.10
2022-10-06T10:27:36.882Z,29.40
2022-10-06T10:32:53.149Z,29.70
2022-10-06T10:38:04.903Z,30.10
2022-10-06T10:43:17.032Z,30.40
2022-10-06T10:48:25.619Z,30.60
2022-10-06T10:53:40.245Z,30.90
2022-10-06T10:58:48.900Z,31.10
2022-10-06T11:03:56.844Z,31.30
2022-10-06T11:09:06.777Z,31.50
2022-10-06T11:14:25.194Z,31.60
2022-10-06T11:19:38.628Z,31.80
2022-10-06T11:24:51.315Z,31.90
2022-10-06T11:30:04.864Z,32.00
2022-10-06T11:35:20.820Z,32.00
2022-10-06T11:40:47.883Z,32.00
2022-10-06T11:46:01.196Z,32.00
2022-10-06T11:51:30.481Z,32.00
2022-10-06T11:56:44.128Z,31.90
2022-10-06T12:01:59.483Z,31.80
2022-10-06T12:07:06.584Z,31.80
2022-10-06T12:13:01.798Z,31.80
2022-10-06T12:18:21.746Z,31.80
2022-10-06T12:23:40.267Z,31.80
2022-10-06T12:28:51.306Z,31.70
2022-10-06T12:33:54.672Z,31.60
2022-10-06T12:39:21.915Z,31.50
2022-10-06T12:44:28.882Z,31.40
2022-10-06T12:49:44.273Z,31.30
2022-10-06T12:55:00.416Z,31.20
2022-10-06T13:05:27.375Z,31.00
2022-10-06T13:10:32.484Z,30.90
2022-10-06T13:15:41.726Z,30.80
2022-10-06T13:20:49.598Z,30.70
2022-10-06T13:25:58.022Z,30.60
2022-10-06T13:31:04.366Z,30.50
2022-10-06T13:36:09.374Z,30.40
2022-10-06T13:41:29.596Z,30.30
2022-10-06T13:46:41.307Z,30.20
2022-10-06T13:51:48.752Z,30.10
2022-10-06T13:56:52.454Z,30.00
2022-10-06T14:01:57.743Z,29.90
2022-10-06T14:07:03.185Z,29.80
2022-10-06T14:12:13.142Z,29.80
2022-10-06T14:17:23.932Z,29.70
2022-10-06T14:22:34.343Z,29.70
2022-10-06T14:27:37.665Z,29.60
2022-10-06T14:32:42.356Z,29.60
2022-10-06T14:37:45.982Z,29.50
2022-10-06T14:42:49.238Z,29.50
2022-10-06T14:47:53.885Z,29.30
2022-10-06T14:52:58.705Z,29.30
2022-10-06T14:58:03.579Z,29.20
2022-10-06T15:03:08.302Z,29.20
2022-10-06T15:08:11.895Z,29.20
2022-10-06T15:13:15.175Z,29.20
2022-10-06T15:18:19.817Z,29.10
2022-10-06T15:23:23.083Z,29.10
2022-10-06T15:28:44.119Z,29.10
2022-10-06T15:33:53.009Z,29.00
2022-10-06T15:38:57.136Z,29.00
2022-10-06T15:44:00.477Z,28.90
2022-10-06T15:49:07.014Z,28.80
2022-10-06T15:54:10.963Z,28.70
2022-10-06T15:59:14.356Z,28.60
2022-10-06T16:04:29.366Z,28.60
2022-10-06T16:09:37.016Z,28.50
2022-10-06T16:14:42.705Z,28.50
2022-10-06T16:19:47.816Z,28.40
2022-10-06T16:24:51.386Z,28.40
2022-10-06T16:29:54.719Z,28.40
2022-10-06T16:34:59.324Z,28.40
2022-10-06T16:40:02.911Z,28.50
2022-10-06T16:45:07.115Z,28.50
2022-10-06T16:50:11.849Z,28.60
2022-10-06T16:55:15.231Z,28.60
2022-10-06T17:00:18.635Z,28.70
2022-10-06T17:05:23.342Z,28.70
2022-10-06T17:10:26.564Z,28.70
2022-10-06T17:15:33.388Z,28.70
2022-10-06T17:20:38.991Z,28.80
2022-10-06T17:25:42.772Z,28.80
2022-10-06T17:30:53.172Z,28.70
2022-10-06T17:35:57.969Z,28.60
2022-10-06T17:41:07.006Z,28.50
2022-10-06T17:46:13.530Z,28.40
2022-10-06T17:51:20.158Z,28.20
2022-10-06T17:56:25.422Z,28.10
2022-10-06T18:01:31.396Z,27.90
2022-10-06T18:06:37.570Z,27.70
2022-10-06T18:11:43.762Z,27.50
2022-10-06T18:16:53.637Z,27.40
2022-10-06T18:22:02.824Z,27.30
2022-10-06T18:27:08.225Z,27.20
2022-10-06T18:33:37.265Z,27.10
2022-10-06T18:37:38.372Z,27.00
2022-10-06T18:42:42.529Z,26.80
2022-10-06T18:48:03.540Z,26.70
2022-10-06T18:53:09.188Z,26.60
2022-10-06T18:58:13.436Z,26.50
2022-10-06T19:03:18.919Z,26.40
2022-10-06T19:08:25.597Z,26.30
2022-10-06T19:13:29.327Z,26.20
2022-10-06T19:18:39.064Z,26.10
2022-10-06T19:23:44.942Z,26.10
2022-10-06T19:28:51.186Z,26.00
2022-10-06T19:33:59.676Z,25.80
2022-10-06T19:39:10.828Z,25.80
2022-10-06T19:44:14.536Z,25.70
2022-10-06T19:49:19.073Z,25.60
2022-10-06T19:54:24.026Z,25.50
2022-10-06T19:59:27.717Z,25.40
2022-10-06T20:04:31.080Z,25.40
2022-10-06T20:09:35.862Z,25.30
2022-10-06T20:14:39.335Z,25.20
2022-10-06T20:19:42.955Z,25.20
2022-10-06T20:24:49.125Z,25.00
2022-10-06T20:29:52.574Z,25.00
2022-10-06T20:34:55.829Z,25.00
2022-10-06T20:40:17.647Z,24.90
2022-10-06T20:45:21.030Z,24.80
2022-10-06T20:50:24.264Z,24.70
2022-10-06T20:55:28.902Z,24.70
2022-10-06T21:00:32.303Z,24.60
2022-10-06T21:05:35.655Z,24.50
2022-10-06T21:10:40.389Z,24.40
2022-10-06T21:15:46.846Z,24.30
2022-10-06T21:20:57.705Z,24.30
2022-10-06T21:26:03.556Z,24.20
2022-10-06T21:31:13.157Z,24.10
2022-10-06T21:36:18.491Z,24.00
2022-10-06T21:41:31.679Z,24.00
2022-10-06T21:46:37.038Z,23.90
2022-10-06T21:51:41.788Z,23.80
2022-10-06T21:56:46.939Z,23.80
2022-10-06T22:01:50.980Z,23.70
2022-10-06T22:06:54.517Z,23.60
2022-10-06T22:11:59.419Z,23.50
2022-10-06T22:17:04.984Z,23.50
2022-10-06T22:22:08.452Z,23.40
2022-10-06T22:27:13.132Z,23.40
2022-10-06T22:32:16.546Z,23.30
2022-10-06T22:37:19.921Z,23.30
2022-10-06T22:42:24.722Z,23.20
2022-10-06T22:47:28.042Z,23.10
2022-10-06T22:52:31.337Z,23.10
2022-10-06T22:57:36.072Z,23.00
2022-10-06T23:02:39.366Z,23.00
2022-10-06T23:07:42.865Z,22.90
2022-10-06T23:12:48.584Z,22.80
2022-10-06T23:17:52.134Z,22.80
2022-10-06T23:22:56.423Z,22.80
2022-10-06T23:28:01.127Z,22.70
2022-10-06T23:33:04.992Z,22.70
2022-10-06T23:38:10.533Z,22.60
2022-10-06T23:43:15.438Z,22.60
2022-10-06T23:48:18.753Z,22.60
2022-10-06T23:53:22.062Z,22.50
2022-10-06T23:58:27.172Z,22.50
